createdAt,value
2019-03-23T00:01:51.894Z,6.07
2019-03-23T00:04:21.377Z,6.70
2019-03-23T00:06:50.729Z,6.20
2019-03-23T00:09:20.169Z,6.67
2019-03-23T00:11:49.515Z,5.73
2019-03-23T00:14:18.899Z,6.77
2019-03-23T00:16:48.209Z,6.40
2019-03-23T00:19:17.812Z,5.67
2019-03-23T00:21:47.108Z,5.80
2019-03-23T00:24:16.430Z,5.87
2019-03-23T00:26:45.727Z,5.73
2019-03-23T00:29:15.043Z,6.07
2019-03-23T00:31:44.413Z,5.80
2019-03-23T00:34:13.799Z,5.90
2019-03-23T00:36:43.148Z,6.00
2019-03-23T00:39:12.498Z,6.03
2019-03-23T00:41:41.802Z,5.87
2019-03-23T00:44:11.160Z,5.90
2019-03-23T00:46:40.450Z,5.93
2019-03-23T00:49:09.745Z,6.40
2019-03-23T00:51:39.278Z,6.93
2019-03-23T00:54:08.585Z,5.50
2019-03-23T00:56:37.870Z,5.90
2019-03-23T00:59:07.322Z,5.47
2019-03-23T01:01:36.761Z,7.07
2019-03-23T01:04:06.166Z,6.93
2019-03-23T01:06:35.530Z,5.93
2019-03-23T01:09:07.310Z,6.50
2019-03-23T01:11:36.647Z,6.07
2019-03-23T01:14:06.127Z,6.37
2019-03-23T01:16:35.927Z,5.80
2019-03-23T01:19:05.372Z,6.80
2019-03-23T01:21:34.646Z,6.17
2019-03-23T01:24:04.155Z,6.37
2019-03-23T01:26:33.422Z,6.93
2019-03-23T01:29:02.734Z,5.97
2019-03-23T01:31:32.020Z,6.37
2019-03-23T01:34:01.663Z,6.63
2019-03-23T01:36:30.987Z,6.50
2019-03-23T01:39:00.291Z,5.93
2019-03-23T01:41:29.913Z,6.63
2019-03-23T01:43:59.220Z,6.57
2019-03-23T01:46:28.835Z,6.33
2019-03-23T01:48:58.131Z,7.17
2019-03-23T01:51:27.679Z,6.50
2019-03-23T01:53:56.978Z,6.33
2019-03-23T01:56:26.265Z,6.50
2019-03-23T01:58:55.563Z,6.50
2019-03-23T02:01:24.866Z,7.07
2019-03-23T02:03:54.178Z,6.70
2019-03-23T02:06:23.462Z,6.50
2019-03-23T02:08:52.762Z,7.03
2019-03-23T02:11:22.110Z,6.37
2019-03-23T02:13:51.399Z,6.97
2019-03-23T02:16:20.675Z,6.70
2019-03-23T02:18:50.258Z,6.37
2019-03-23T02:21:19.572Z,6.63
2019-03-23T02:23:49.127Z,7.00
2019-03-23T02:26:18.418Z,7.90
2019-03-23T02:28:47.787Z,7.57
2019-03-23T02:31:17.409Z,6.77
2019-03-23T02:33:46.713Z,7.40
2019-03-23T02:36:16.275Z,7.13
2019-03-23T02:38:45.579Z,6.50
2019-03-23T02:41:14.867Z,6.97
2019-03-23T02:43:44.177Z,7.90
2019-03-23T02:46:13.467Z,7.03
2019-03-23T02:48:42.915Z,7.70
2019-03-23T02:51:12.212Z,7.83
2019-03-23T02:53:41.508Z,7.10
2019-03-23T02:56:10.791Z,7.17
2019-03-23T02:58:40.091Z,8.03
2019-03-23T03:01:09.375Z,7.67
2019-03-23T03:03:38.819Z,8.27
2019-03-23T03:06:08.129Z,7.00
2019-03-23T03:08:37.663Z,6.77
2019-03-23T03:11:07.214Z,7.43
2019-03-23T03:13:36.573Z,7.57
2019-03-23T03:16:05.895Z,7.87
2019-03-23T03:18:35.260Z,7.07
2019-03-23T03:21:04.646Z,7.80
2019-03-23T03:23:33.930Z,7.43
2019-03-23T03:26:03.222Z,7.80
2019-03-23T03:28:32.597Z,8.73
2019-03-23T03:31:02.329Z,7.00
2019-03-23T03:33:31.727Z,7.30
2019-03-23T03:36:01.126Z,8.10
2019-03-23T03:38:30.705Z,7.70
2019-03-23T03:41:00.095Z,7.57
2019-03-23T03:43:29.381Z,8.17
2019-03-23T03:45:58.706Z,7.37
2019-03-23T03:48:27.972Z,7.60
2019-03-23T03:50:57.518Z,8.83
2019-03-23T03:53:26.831Z,7.63
2019-03-23T03:55:56.123Z,8.50
2019-03-23T03:58:25.415Z,8.50
2019-03-23T04:00:54.721Z,7.40
2019-03-23T04:03:24.028Z,7.90
2019-03-23T04:05:53.412Z,9.03
2019-03-23T04:08:22.710Z,8.27
2019-03-23T04:10:52.131Z,7.43
2019-03-23T04:13:21.428Z,8.37
2019-03-23T04:15:50.741Z,8.37
2019-03-23T04:18:20.348Z,8.17
2019-03-23T04:20:49.653Z,8.10
2019-03-23T04:23:18.959Z,8.27
2019-03-23T04:25:48.258Z,8.27
2019-03-23T04:28:17.823Z,8.77
2019-03-23T04:30:47.179Z,8.83
2019-03-23T04:33:16.510Z,7.90
2019-03-23T04:35:45.800Z,8.70
2019-03-23T04:38:22.537Z,9.07
2019-03-23T04:40:46.395Z,9.30
2019-03-23T04:43:15.694Z,8.43
2019-03-23T04:45:45.038Z,9.00
2019-03-23T04:48:14.386Z,8.90
2019-03-23T04:50:43.751Z,9.43
2019-03-23T04:53:13.410Z,8.57
2019-03-23T04:55:42.711Z,10.07
2019-03-23T04:58:12.029Z,8.67
2019-03-23T05:00:41.654Z,9.37
2019-03-23T05:03:10.975Z,8.73
2019-03-23T05:05:40.318Z,8.83
2019-03-23T05:08:09.794Z,8.90
2019-03-23T05:10:39.110Z,9.80
2019-03-23T05:13:08.438Z,8.40
2019-03-23T05:15:37.738Z,9.20
2019-03-23T05:18:07.147Z,8.77
2019-03-23T05:20:36.524Z,9.50
2019-03-23T05:23:05.898Z,8.93
2019-03-23T05:25:35.304Z,9.67
2019-03-23T05:28:04.721Z,9.90
2019-03-23T05:30:34.023Z,8.70
2019-03-23T05:33:03.563Z,10.60
2019-03-23T05:35:33.030Z,10.00
2019-03-23T05:38:02.336Z,9.93
2019-03-23T05:40:31.653Z,10.00
2019-03-23T05:43:00.962Z,9.53
2019-03-23T05:45:30.547Z,9.67
2019-03-23T05:48:00.011Z,9.63
2019-03-23T05:50:29.338Z,10.23
2019-03-23T05:52:58.675Z,10.70
2019-03-23T05:55:28.316Z,12.33
2019-03-23T05:57:57.634Z,18.47
2019-03-23T06:00:27.061Z,19.13
2019-03-23T06:02:56.385Z,10.60
2019-03-23T06:05:25.718Z,10.13
2019-03-23T06:07:55.031Z,18.70
2019-03-23T06:10:24.449Z,11.27
2019-03-23T06:12:53.847Z,9.77
2019-03-23T06:15:23.389Z,10.37
2019-03-23T06:17:52.719Z,10.97
2019-03-23T06:20:22.131Z,10.73
2019-03-23T06:22:51.454Z,10.60
2019-03-23T06:25:20.956Z,9.93
2019-03-23T06:27:50.258Z,11.63
2019-03-23T06:30:19.581Z,10.20
2019-03-23T06:32:48.902Z,12.00
2019-03-23T06:35:18.242Z,11.47
2019-03-23T06:37:47.883Z,10.20
2019-03-23T06:40:17.219Z,10.07
2019-03-23T06:42:46.606Z,11.80
2019-03-23T06:45:16.108Z,11.53
2019-03-23T06:47:45.532Z,11.60
2019-03-23T06:50:15.082Z,11.30
2019-03-23T06:52:44.399Z,11.57
2019-03-23T06:55:14.042Z,11.23
2019-03-23T06:57:43.358Z,10.90
2019-03-23T07:00:12.943Z,9.97
2019-03-23T07:02:42.610Z,11.03
2019-03-23T07:05:13.095Z,9.63
2019-03-23T07:07:42.510Z,9.93
2019-03-23T07:10:12.062Z,9.70
2019-03-23T07:12:41.581Z,9.93
2019-03-23T07:15:19.543Z,11.83
2019-03-23T07:17:42.731Z,11.27
2019-03-23T07:20:12.721Z,11.70
2019-03-23T07:22:42.779Z,11.17
2019-03-23T07:25:13.322Z,11.27
2019-03-23T07:27:42.651Z,10.93
2019-03-23T07:30:13.631Z,10.80
2019-03-23T07:32:43.119Z,13.67
2019-03-23T07:35:13.377Z,16.83
2019-03-23T07:37:42.777Z,19.97
2019-03-23T07:40:12.864Z,20.33
2019-03-23T07:42:42.187Z,19.57
2019-03-23T07:45:12.609Z,20.47
2019-03-23T07:47:42.071Z,22.10
2019-03-23T07:50:11.846Z,20.93
2019-03-23T07:52:41.174Z,20.95
2019-03-23T07:55:12.314Z,20.55
2019-03-23T07:57:42.124Z,28.65
2019-03-23T08:00:13.816Z,21.87
2019-03-23T08:02:44.154Z,23.92
2019-03-23T08:05:13.545Z,23.32
2019-03-23T08:07:43.258Z,20.88
2019-03-23T08:10:26.641Z,21.25
2019-03-23T08:12:56.291Z,23.77
2019-03-23T08:15:25.678Z,24.47
2019-03-23T08:17:55.277Z,25.75
2019-03-23T08:20:24.643Z,26.55
2019-03-23T08:22:54.197Z,29.35
2019-03-23T08:25:23.567Z,29.35
2019-03-23T08:27:52.895Z,29.57
2019-03-23T08:30:22.207Z,33.15
2019-03-23T08:32:51.546Z,36.42
2019-03-23T08:35:20.959Z,35.88
2019-03-23T08:37:50.278Z,36.08
2019-03-23T08:40:19.968Z,40.92
2019-03-23T08:42:49.362Z,41.63
2019-03-23T08:45:18.722Z,39.95
2019-03-23T08:47:48.066Z,43.28
2019-03-23T08:50:17.692Z,42.88
2019-03-23T08:52:47.046Z,43.65
2019-03-23T08:55:16.354Z,45.88
2019-03-23T08:57:45.711Z,46.00
2019-03-23T09:00:15.309Z,47.08
2019-03-23T09:02:44.752Z,48.50
2019-03-23T09:05:14.163Z,47.50
2019-03-23T09:07:43.472Z,47.80
2019-03-23T09:10:13.151Z,48.63
2019-03-23T09:12:42.458Z,50.92
2019-03-23T09:15:12.231Z,49.98
2019-03-23T09:17:41.544Z,51.85
2019-03-23T09:20:11.843Z,54.27
2019-03-23T09:22:41.158Z,53.33
2019-03-23T09:25:10.652Z,56.95
2019-03-23T09:27:40.030Z,57.58
2019-03-23T09:30:10.139Z,59.90
2019-03-23T09:32:39.551Z,57.70
2019-03-23T09:35:09.320Z,62.55
2019-03-23T09:37:38.718Z,59.57
2019-03-23T09:40:11.021Z,64.30
2019-03-23T09:42:40.262Z,62.50
2019-03-23T09:45:09.941Z,64.27
2019-03-23T09:47:39.651Z,65.97
2019-03-23T09:50:09.646Z,65.77
2019-03-23T09:52:38.961Z,62.93
2019-03-23T09:55:08.574Z,63.83
2019-03-23T09:57:38.046Z,67.27
2019-03-23T10:00:08.472Z,70.13
2019-03-23T10:02:37.771Z,67.30
2019-03-23T10:05:07.426Z,68.93
2019-03-23T10:07:36.823Z,66.93
2019-03-23T10:10:07.115Z,66.80
2019-03-23T10:12:36.617Z,65.73
2019-03-23T10:15:06.878Z,68.63
2019-03-23T10:17:36.235Z,67.40
2019-03-23T10:20:06.520Z,65.03
2019-03-23T10:22:36.138Z,66.83
2019-03-23T10:25:05.723Z,66.00
2019-03-23T10:27:35.471Z,68.97
2019-03-23T10:30:05.401Z,65.17
2019-03-23T10:32:34.775Z,67.13
2019-03-23T10:35:05.418Z,65.60
2019-03-23T10:37:35.118Z,65.93
2019-03-23T10:40:04.830Z,65.50
2019-03-23T10:42:34.458Z,64.03
2019-03-23T10:45:04.266Z,63.97
2019-03-23T10:47:33.735Z,62.03
2019-03-23T10:50:03.171Z,61.17
2019-03-23T10:52:32.570Z,61.53
2019-03-23T10:55:01.882Z,59.10
2019-03-23T10:57:31.210Z,58.10
2019-03-23T11:00:00.603Z,58.20
2019-03-23T11:02:30.106Z,57.60
2019-03-23T11:05:19.188Z,56.43
2019-03-23T11:07:48.573Z,56.70
2019-03-23T11:10:18.150Z,54.47
2019-03-23T11:12:47.484Z,54.63
2019-03-23T11:15:17.562Z,53.47
2019-03-23T11:17:47.014Z,52.70
2019-03-23T11:20:16.519Z,54.93
2019-03-23T11:22:45.960Z,53.20
2019-03-23T11:25:15.495Z,54.40
2019-03-23T11:27:44.939Z,60.30
2019-03-23T11:30:14.716Z,68.53
2019-03-23T11:32:44.711Z,56.07
2019-03-23T11:35:14.415Z,86.37
2019-03-23T11:37:44.009Z,73.87
2019-03-23T11:40:13.685Z,87.07
2019-03-23T11:42:49.976Z,56.77
2019-03-23T11:45:14.387Z,61.57
2019-03-23T11:47:43.962Z,57.57
2019-03-23T11:50:13.532Z,60.37
2019-03-23T11:52:42.833Z,71.50
2019-03-23T11:55:12.816Z,56.63
2019-03-23T11:57:42.204Z,57.80
2019-03-23T12:00:12.581Z,65.00
2019-03-23T12:02:42.317Z,59.03
2019-03-23T12:05:11.754Z,56.07
2019-03-23T12:07:41.162Z,58.93
2019-03-23T12:10:11.057Z,61.48
2019-03-23T12:12:40.365Z,63.85
2019-03-23T12:15:10.257Z,60.30
2019-03-23T12:17:39.640Z,61.23
2019-03-23T12:20:10.121Z,61.42
2019-03-23T12:22:39.646Z,61.35
2019-03-23T12:25:09.406Z,62.17
2019-03-23T12:27:39.150Z,58.68
2019-03-23T12:30:10.069Z,62.88
2019-03-23T12:32:39.522Z,62.35
2019-03-23T12:35:09.311Z,62.62
2019-03-23T12:37:38.762Z,63.23
2019-03-23T12:40:09.003Z,62.67
2019-03-23T12:42:38.326Z,60.43
2019-03-23T12:45:08.235Z,62.30
2019-03-23T12:47:37.548Z,65.05
2019-03-23T12:50:07.983Z,62.62
2019-03-23T12:52:37.767Z,62.27
2019-03-23T12:55:07.598Z,63.92
2019-03-23T12:57:37.216Z,62.70
2019-03-23T13:00:09.070Z,61.90
2019-03-23T13:02:38.418Z,65.22
2019-03-23T13:05:08.249Z,62.15
2019-03-23T13:07:37.612Z,63.45
2019-03-23T13:10:07.866Z,63.92
2019-03-23T13:12:37.194Z,66.05
2019-03-23T13:15:08.135Z,61.80
2019-03-23T13:17:37.832Z,63.20
2019-03-23T13:20:08.757Z,63.42
2019-03-23T13:22:38.355Z,67.27
2019-03-23T13:25:08.387Z,67.92
2019-03-23T13:27:37.754Z,65.72
2019-03-23T13:30:08.295Z,64.30
2019-03-23T13:32:37.681Z,62.15
2019-03-23T13:35:07.866Z,63.52
2019-03-23T13:37:37.264Z,61.77
2019-03-23T13:40:07.202Z,65.53
2019-03-23T13:42:36.530Z,63.48
2019-03-23T13:45:07.129Z,62.30
2019-03-23T13:47:36.567Z,65.17
2019-03-23T13:50:06.920Z,66.70
2019-03-23T13:52:36.362Z,61.25
2019-03-23T13:55:06.573Z,62.43
2019-03-23T13:57:36.056Z,64.35
2019-03-23T14:00:06.319Z,63.52
2019-03-23T14:02:35.802Z,61.80
2019-03-23T14:05:12.253Z,63.40
2019-03-23T14:07:37.089Z,63.13
2019-03-23T14:10:06.846Z,64.45
2019-03-23T14:12:36.130Z,65.72
2019-03-23T14:15:06.113Z,64.40
2019-03-23T14:17:35.414Z,65.80
2019-03-23T14:20:05.330Z,64.70
2019-03-23T14:22:34.835Z,66.15
2019-03-23T14:25:04.735Z,64.17
2019-03-23T14:27:34.135Z,65.47
2019-03-23T14:30:04.074Z,63.70
2019-03-23T14:32:33.635Z,61.35
2019-03-23T14:35:03.155Z,64.07
2019-03-23T14:37:32.483Z,60.20
2019-03-23T14:40:01.779Z,61.28
2019-03-23T14:42:31.372Z,60.37
2019-03-23T14:45:00.679Z,58.83
2019-03-23T14:47:30.062Z,58.58
2019-03-23T14:49:59.438Z,60.60
2019-03-23T14:52:28.757Z,56.60
2019-03-23T14:54:58.143Z,55.75
2019-03-23T14:57:27.941Z,57.33
2019-03-23T14:59:57.247Z,57.60
2019-03-23T15:02:26.550Z,56.43
2019-03-23T15:04:55.871Z,60.10
2019-03-23T15:07:25.443Z,51.50
2019-03-23T15:09:54.742Z,52.13
2019-03-23T15:12:24.125Z,52.83
2019-03-23T15:14:53.423Z,49.77
2019-03-23T15:17:22.783Z,49.10
2019-03-23T15:19:52.362Z,48.25
2019-03-23T15:22:21.687Z,50.40
2019-03-23T15:24:51.276Z,48.77
2019-03-23T15:27:20.573Z,46.00
2019-03-23T15:29:49.866Z,45.52
2019-03-23T15:32:19.184Z,45.33
2019-03-23T15:34:48.863Z,45.33
2019-03-23T15:37:18.178Z,45.30
2019-03-23T15:39:47.506Z,45.43
2019-03-23T15:42:24.407Z,45.07
2019-03-23T15:44:47.923Z,44.63
2019-03-23T15:47:17.227Z,47.17
2019-03-23T15:49:46.649Z,45.40
2019-03-23T15:52:15.942Z,51.40
2019-03-23T15:54:45.238Z,46.43
2019-03-23T15:57:20.808Z,41.23
2019-03-23T15:59:50.122Z,41.57
2019-03-23T16:02:19.434Z,43.97
2019-03-23T16:04:48.731Z,43.33
2019-03-23T16:07:18.046Z,41.07
2019-03-23T16:09:47.347Z,41.33
2019-03-23T16:12:16.646Z,42.47
2019-03-23T16:14:45.958Z,39.83
2019-03-23T16:17:15.614Z,43.23
2019-03-23T16:19:44.982Z,38.97
2019-03-23T16:22:14.299Z,40.33
2019-03-23T16:24:43.644Z,40.03
2019-03-23T16:27:12.940Z,38.57
2019-03-23T16:29:42.250Z,39.57
2019-03-23T16:32:11.893Z,39.63
2019-03-23T16:34:41.506Z,37.00
2019-03-23T16:37:10.799Z,36.30
2019-03-23T16:39:40.098Z,31.83
2019-03-23T16:42:09.440Z,33.37
2019-03-23T16:44:38.751Z,30.83
2019-03-23T16:47:08.133Z,29.53
2019-03-23T16:49:37.451Z,29.10
2019-03-23T16:52:06.822Z,29.70
2019-03-23T16:54:36.210Z,29.47
2019-03-23T16:57:05.906Z,27.10
2019-03-23T16:59:36.396Z,25.00
2019-03-23T17:02:05.871Z,26.17
2019-03-23T17:04:35.170Z,26.17
2019-03-23T17:07:04.550Z,24.33
2019-03-23T17:09:33.973Z,25.40
2019-03-23T17:12:03.307Z,22.73
2019-03-23T17:14:32.632Z,21.73
2019-03-23T17:17:02.063Z,24.17
2019-03-23T17:19:31.503Z,20.30
2019-03-23T17:22:00.807Z,20.53
2019-03-23T17:24:30.135Z,20.93
2019-03-23T17:26:59.618Z,20.33
2019-03-23T17:29:28.938Z,20.50
2019-03-23T17:31:58.275Z,21.23
2019-03-23T17:34:27.643Z,22.07
2019-03-23T17:36:56.983Z,23.10
2019-03-23T17:39:26.415Z,22.10
2019-03-23T17:41:55.715Z,22.13
2019-03-23T17:44:25.088Z,21.63
2019-03-23T17:46:54.489Z,22.13
2019-03-23T17:49:23.809Z,23.50
2019-03-23T17:51:55.396Z,23.53
2019-03-23T17:54:24.159Z,21.80
2019-03-23T17:56:54.082Z,24.60
2019-03-23T17:59:23.547Z,24.43
2019-03-23T18:01:52.967Z,25.60
2019-03-23T18:04:22.288Z,23.97
2019-03-23T18:06:51.615Z,24.33
2019-03-23T18:09:21.184Z,22.27
2019-03-23T18:11:50.581Z,22.53
2019-03-23T18:14:20.582Z,23.50
2019-03-23T18:16:50.071Z,22.37
2019-03-23T18:19:19.383Z,21.97
2019-03-23T18:21:49.142Z,21.90
2019-03-23T18:24:18.454Z,20.20
2019-03-23T18:26:47.799Z,20.33
2019-03-23T18:29:17.088Z,22.60
2019-03-23T18:31:46.521Z,22.17
2019-03-23T18:34:15.886Z,22.13
2019-03-23T18:36:45.343Z,22.30
2019-03-23T18:39:15.010Z,21.77
2019-03-23T18:41:44.711Z,21.97
2019-03-23T18:44:16.366Z,20.87
2019-03-23T18:46:45.272Z,21.47
2019-03-23T18:49:14.575Z,22.57
2019-03-23T18:51:43.894Z,21.77
2019-03-23T18:54:13.199Z,21.60
2019-03-23T18:56:42.510Z,20.37
2019-03-23T18:59:11.805Z,21.33
2019-03-23T19:01:41.462Z,22.17
2019-03-23T19:04:10.796Z,21.83
2019-03-23T19:06:40.119Z,22.20
2019-03-23T19:09:09.418Z,22.20
2019-03-23T19:11:39.382Z,23.03
2019-03-23T19:14:08.770Z,22.17
2019-03-23T19:16:38.068Z,22.13
2019-03-23T19:19:07.519Z,21.70
2019-03-23T19:21:36.966Z,21.60
2019-03-23T19:24:06.371Z,22.53
2019-03-23T19:26:35.738Z,22.40
2019-03-23T19:29:05.126Z,22.87
2019-03-23T19:31:34.443Z,24.37
2019-03-23T19:34:04.142Z,22.87
2019-03-23T19:36:33.488Z,23.20
2019-03-23T19:39:04.476Z,24.47
2019-03-23T19:41:33.914Z,23.43
2019-03-23T19:44:03.328Z,25.83
2019-03-23T19:46:32.634Z,24.03
2019-03-23T19:49:02.020Z,23.23
2019-03-23T19:51:31.344Z,23.67
2019-03-23T19:54:01.005Z,24.90
2019-03-23T19:56:30.438Z,23.83
2019-03-23T19:58:59.774Z,24.07
2019-03-23T20:01:29.083Z,23.57
2019-03-23T20:03:58.413Z,23.80
2019-03-23T20:06:28.077Z,23.47
2019-03-23T20:08:57.375Z,23.53
2019-03-23T20:11:26.682Z,25.03
2019-03-23T20:13:59.040Z,23.40
2019-03-23T20:16:26.991Z,23.40
2019-03-23T20:18:56.374Z,22.70
2019-03-23T20:21:25.675Z,26.40
2019-03-23T20:23:54.983Z,25.97
2019-03-23T20:26:24.278Z,23.90
2019-03-23T20:28:53.580Z,22.87
2019-03-23T20:31:22.877Z,25.03
2019-03-23T20:33:52.199Z,23.70
2019-03-23T20:36:21.584Z,24.03
2019-03-23T20:38:50.919Z,23.73
2019-03-23T20:41:20.515Z,24.63
2019-03-23T20:43:49.890Z,22.77
2019-03-23T20:46:19.204Z,21.47
2019-03-23T20:48:48.740Z,22.10
2019-03-23T20:51:18.302Z,23.77
2019-03-23T20:53:47.705Z,21.90
2019-03-23T20:56:17.083Z,22.87
2019-03-23T20:58:46.546Z,23.20
2019-03-23T21:01:15.874Z,24.83
2019-03-23T21:03:45.173Z,24.70
2019-03-23T21:06:14.558Z,24.60
2019-03-23T21:08:43.850Z,24.33
2019-03-23T21:11:13.247Z,24.17
2019-03-23T21:13:42.541Z,87.43
2019-03-23T21:16:11.910Z,28.97
2019-03-23T21:18:41.207Z,56.80
2019-03-23T21:21:10.517Z,24.37
2019-03-23T21:23:40.143Z,24.63
2019-03-23T21:26:09.558Z,26.17
2019-03-23T21:28:38.863Z,27.93
2019-03-23T21:31:08.347Z,25.77
2019-03-23T21:33:38.976Z,23.53
2019-03-23T21:36:08.491Z,26.57
2019-03-23T21:38:37.819Z,28.77
2019-03-23T21:41:07.414Z,26.73
2019-03-23T21:43:36.723Z,28.53
2019-03-23T21:46:06.117Z,28.10
2019-03-23T21:48:35.549Z,26.43
2019-03-23T21:51:04.961Z,27.97
2019-03-23T21:53:34.258Z,29.43
2019-03-23T21:56:03.741Z,28.60
2019-03-23T21:58:33.267Z,28.80
2019-03-23T22:01:02.664Z,26.80
2019-03-23T22:03:31.970Z,26.73
2019-03-23T22:06:01.562Z,27.30
2019-03-23T22:08:30.850Z,28.17
2019-03-23T22:11:00.407Z,29.17
2019-03-23T22:13:29.708Z,27.43
2019-03-23T22:15:59.031Z,26.93
2019-03-23T22:18:28.678Z,27.57
2019-03-23T22:20:57.986Z,26.73
2019-03-23T22:23:27.308Z,27.53
2019-03-23T22:25:56.604Z,29.70
2019-03-23T22:28:25.917Z,32.87
2019-03-23T22:30:55.224Z,29.50
2019-03-23T22:33:24.558Z,29.90
2019-03-23T22:35:53.894Z,31.63
2019-03-23T22:38:23.202Z,29.27
2019-03-23T22:40:52.504Z,30.73
2019-03-23T22:43:21.810Z,28.30
2019-03-23T22:45:51.346Z,28.93
2019-03-23T22:48:20.641Z,28.60
2019-03-23T22:50:50.010Z,28.90
2019-03-23T22:53:19.694Z,31.13
2019-03-23T22:55:49.077Z,27.20
2019-03-23T22:58:18.468Z,29.30
2019-03-23T23:00:48.687Z,28.33
2019-03-23T23:03:18.060Z,28.63
2019-03-23T23:06:06.306Z,26.50
2019-03-23T23:08:35.850Z,29.23
2019-03-23T23:11:05.243Z,28.30
2019-03-23T23:13:34.817Z,26.77
2019-03-23T23:16:04.175Z,31.70
2019-03-23T23:18:33.496Z,28.37
2019-03-23T23:21:02.779Z,29.70
2019-03-23T23:23:32.079Z,32.57
2019-03-23T23:26:01.386Z,30.17
2019-03-23T23:28:30.699Z,30.53
2019-03-23T23:30:59.982Z,32.23
2019-03-23T23:33:29.289Z,31.97
2019-03-23T23:35:58.581Z,26.63
2019-03-23T23:38:27.949Z,27.80
2019-03-23T23:40:57.239Z,31.03
2019-03-23T23:43:26.685Z,29.27
2019-03-23T23:45:55.978Z,28.00
2019-03-23T23:48:25.299Z,30.93
2019-03-23T23:50:54.618Z,28.60
2019-03-23T23:53:23.965Z,30.27
2019-03-23T23:55:53.254Z,28.93
2019-03-23T23:58:22.563Z,29.10
